Time,TemperatureF,DewpointF,PressureIn,WindDirection,WindDirectionDegrees,WindSpeedMPH,WindSpeedGustMPH,Humidity,HourlyPrecipIn,Conditions,Clouds,dailyrainin,SoftwareType,DateUTC
2013-06-07 00:04:00,56.8,56.8,29.79,NNE,25,6.0,7.0,100,0.00,RA,FEW,0.00,WeatherDisplay:10.37,2013-06-07 04:04:00,
2013-06-07 00:09:00,56.7,56.7,29.79,NNE,25,6.0,6.0,100,0.00,RA,FEW,0.00,WeatherDisplay:10.37,2013-06-07 04:09:00,
2013-06-07 00:14:00,56.5,56.5,29.79,NNE,15,7.0,7.0,100,0.00,CLR,FEW,0.00,WeatherDisplay:10.37,2013-06-07 04:14:00,
2013-06-07 00:19:00,56.5,56.5,29.79,North,349,7.0,7.0,100,0.00,CLR,FEW,0.00,WeatherDisplay:10.37,2013-06-07 04:19:00,
2013-06-07 00:29:00,56.7,56.7,29.79,NNW,339,5.0,5.0,100,0.00,CLR,FEW,0.00,WeatherDisplay:10.37,2013-06-07 04:29:00,
2013-06-07 00:39:00,56.7,56.7,29.79,NNE,14,2.0,0.0,100,0.00,CLR,FEW,0.00,WeatherDisplay:10.37,2013-06-07 04:39:00,
2013-06-07 00:49:00,56.3,56.3,29.79,NNE,16,3.0,7.0,100,0.00,CLR,FEW,0.00,WeatherDisplay:10.37,2013-06-07 04:49:00,
2013-06-07 00:54:00,56.5,56.5,29.79,NNE,24,3.0,3.0,100,0.00,CLR,FEW,0.00,WeatherDisplay:10.37,2013-06-07 04:54:00,
2013-06-07 00:59:00,56.5,56.5,29.79,NE,34,5.0,5.0,100,0.00,CLR,FEW,0.00,WeatherDisplay:10.37,2013-06-07 04:59:00,
2013-06-07 01:04:00,56.3,56.3,29.79,NE,35,3.0,3.0,100,0.00,CLR,FEW,0.00,WeatherDisplay:10.37,2013-06-07 05:04:00,
2013-06-07 01:09:00,56.5,56.5,29.79,NNE,23,2.0,5.0,100,0.00,CLR,FEW,0.00,WeatherDisplay:10.37,2013-06-07 05:09:00,
2013-06-07 01:19:00,56.7,56.7,29.79,North,5,2.0,2.0,100,0.00,CLR,FEW,0.00,WeatherDisplay:10.37,2013-06-07 05:19:00,
2013-06-07 01:29:00,56.7,56.7,29.79,NNW,346,2.0,2.0,100,0.00,CLR,FEW,0.00,WeatherDisplay:10.37,2013-06-07 05:29:00,
2013-06-07 01:34:00,56.8,56.8,29.79,North,358,2.0,5.0,100,0.00,CLR,FEW,0.00,WeatherDisplay:10.37,2013-06-07 05:34:00,
2013-06-07 01:39:00,56.8,56.8,29.79,North,2,2.0,3.0,100,0.00,CLR,FEW,0.00,WeatherDisplay:10.37,2013-06-07 05:39:00,
2013-06-07 01:49:00,56.8,56.8,29.79,North,359,2.0,5.0,100,0.00,CLR,FEW,0.00,WeatherDisplay:10.37,2013-06-07 05:49:00,
2013-06-07 01:59:00,57.0,57.0,29.79,North,5,1.0,3.0,100,0.00,CLR,FEW,0.00,WeatherDisplay:10.37,2013-06-07 05:59:00,
2013-06-07 02:04:00,56.8,56.8,29.79,North,5,1.0,0.0,100,0.00,CLR,FEW,0.00,WeatherDisplay:10.37,2013-06-07 06:04:00,
2013-06-07 02:09:00,57.0,57.0,29.79,North,7,1.0,1.0,100,0.00,CLR,FEW,0.00,WeatherDisplay:10.37,2013-06-07 06:09:00,
2013-06-07 02:14:00,57.0,57.0,29.79,NNE,14,1.0,1.0,100,0.00,CLR,FEW,0.00,WeatherDisplay:10.37,2013-06-07 06:14:00,
2013-06-07 02:19:00,57.0,57.0,29.79,NNE,15,0.0,0.0,100,0.00,CLR,FEW,0.00,WeatherDisplay:10.37,2013-06-07 06:19:00,
2013-06-07 02:29:00,57.0,57.0,29.79,North,11,0.0,4.0,100,0.00,CLR,FEW,0.00,WeatherDisplay:10.37,2013-06-07 06:29:00,
2013-06-07 02:39:00,56.8,56.8,29.79,North,359,1.0,4.0,100,0.00,CLR,FEW,0.00,WeatherDisplay:10.37,2013-06-07 06:39:00,
2013-06-07 02:49:00,57.0,57.0,29.79,North,354,1.0,0.0,100,0.00,CLR,FEW,0.00,WeatherDisplay:10.37,2013-06-07 06:49:00,
2013-06-07 02:59:00,57.0,57.0,29.79,NNW,337,1.0,4.0,100,0.00,CLR,FEW,0.00,WeatherDisplay:10.37,2013-06-07 06:59:00,
2013-06-07 03:04:00,57.0,57.0,29.79,NW,324,1.0,1.0,100,0.00,CLR,FEW,0.00,WeatherDisplay:10.37,2013-06-07 07:04:00,
2013-06-07 03:09:00,57.0,57.0,29.79,NNW,335,1.0,0.0,100,0.00,CLR,FEW,0.00,WeatherDisplay:10.37,2013-06-07 07:09:00,
2013-06-07 03:19:00,56.8,56.8,29.79,North,349,0.0,2.0,100,0.00,CLR,FEW,0.00,WeatherDisplay:10.37,2013-06-07 07:19:00,
2013-06-07 03:24:00,57.0,57.0,29.79,North,356,0.0,2.0,100,0.00,CLR,FEW,0.00,WeatherDisplay:10.37,2013-06-07 07:24:00,
2013-06-07 03:29:00,57.0,57.0,29.79,North,356,1.0,2.0,100,0.00,CLR,FEW,0.00,WeatherDisplay:10.37,2013-06-07 07:29:00,
2013-06-07 03:39:00,57.0,57.0,29.79,North,356,1.0,3.0,100,0.00,CLR,FEW,0.00,WeatherDisplay:10.37,2013-06-07 07:39:00,
2013-06-07 03:44:00,57.0,57.0,29.79,NNE,12,1.0,3.0,100,0.00,CLR,FEW,0.00,WeatherDisplay:10.37,2013-06-07 07:44:00,
2013-06-07 03:49:00,57.2,57.2,29.79,NNW,346,1.0,4.0,100,0.00,CLR,FEW,0.00,WeatherDisplay:10.37,2013-06-07 07:49:00,
2013-06-07 03:59:00,56.8,56.8,29.76,North,350,2.0,5.0,100,0.00,CLR,FEW,0.00,WeatherDisplay:10.37,2013-06-07 07:59:00,
2013-06-07 04:04:00,57.0,57.0,29.79,North,355,1.0,0.0,100,0.00,CLR,FEW,0.00,WeatherDisplay:10.37,2013-06-07 08:04:00,
2013-06-07 04:09:00,57.0,57.0,29.79,North,355,1.0,0.0,100,0.00,CLR,FEW,0.00,WeatherDisplay:10.37,2013-06-07 08:09:00,
2013-06-07 04:19:00,56.8,56.8,29.79,North,355,0.0,0.0,100,0.00,CLR,FEW,0.00,WeatherDisplay:10.37,2013-06-07 08:19:00,
2013-06-07 04:24:00,56.8,56.8,29.79,North,355,0.0,2.0,100,0.00,CLR,FEW,0.00,WeatherDisplay:10.37,2013-06-07 08:24:00,
2013-06-07 04:29:00,56.8,56.8,29.79,North,359,1.0,3.0,100,0.00,CLR,FEW,0.00,WeatherDisplay:10.37,2013-06-07 08:29:00,
2013-06-07 04:39:00,56.8,56.8,29.79,NNW,344,2.0,3.0,100,0.00,CLR,FEW,0.00,WeatherDisplay:10.37,2013-06-07 08:39:00,
2013-06-07 04:44:00,56.8,56.8,29.76,North,1,2.0,5.0,100,0.00,CLR,FEW,0.00,WeatherDisplay:10.37,2013-06-07 08:44:00,
2013-06-07 04:49:00,56.7,56.7,29.79,North,10,3.0,5.0,100,0.00,CLR,FEW,0.00,WeatherDisplay:10.37,2013-06-07 08:49:00,
2013-06-07 04:59:00,56.7,56.7,29.79,NE,54,2.0,0.0,100,0.00,CLR,FEW,0.00,WeatherDisplay:10.37,2013-06-07 08:59:00,
2013-06-07 05:04:00,56.5,56.5,29.79,NE,44,1.0,5.0,100,0.00,CLR,FEW,0.00,WeatherDisplay:10.37,2013-06-07 09:04:00,
2013-06-07 05:09:00,56.5,56.5,29.79,NE,37,1.0,5.0,100,0.00,CLR,FEW,0.00,WeatherDisplay:10.37,2013-06-07 09:09:00,
2013-06-07 05:19:00,56.7,56.7,29.79,NNE,26,1.0,5.0,100,0.01,RA,FEW,0.01,WeatherDisplay:10.37,2013-06-07 09:19:00,
2013-06-07 05:24:00,56.5,56.5,29.79,NNE,33,2.0,5.0,100,0.00,RA,FEW,0.01,WeatherDisplay:10.37,2013-06-07 09:24:00,
2013-06-07 05:29:00,56.5,56.5,29.79,NE,35,2.0,3.0,100,0.00,CLR,FEW,0.01,WeatherDisplay:10.37,2013-06-07 09:29:00,
2013-06-07 05:34:00,56.3,56.3,29.79,NE,43,3.0,4.0,100,0.00,CLR,FEW,0.01,WeatherDisplay:10.37,2013-06-07 09:34:00,
2013-06-07 05:39:00,56.3,56.3,29.79,NE,45,3.0,4.0,100,0.00,CLR,FEW,0.01,WeatherDisplay:10.37,2013-06-07 09:39:00,
2013-06-07 05:49:00,56.3,56.3,29.79,North,9,2.0,3.0,100,0.00,CLR,FEW,0.01,WeatherDisplay:10.37,2013-06-07 09:49:00,
2013-06-07 05:54:00,56.5,56.5,29.79,NNW,347,2.0,4.0,100,0.00,CLR,FEW,0.01,WeatherDisplay:10.37,2013-06-07 09:54:00,
2013-06-07 05:59:00,56.7,56.7,29.79,NW,323,1.0,4.0,100,0.00,CLR,FEW,0.01,WeatherDisplay:10.37,2013-06-07 09:59:00,
2013-06-07 06:04:00,56.8,56.8,29.79,NW,324,1.0,2.0,100,0.00,CLR,FEW,0.01,WeatherDisplay:10.37,2013-06-07 10:04:00,
2013-06-07 06:09:00,56.8,56.8,29.79,NW,324,1.0,0.0,100,0.00,CLR,FEW,0.01,WeatherDisplay:10.37,2013-06-07 10:09:00,
2013-06-07 06:14:00,56.7,56.7,29.79,NW,325,0.0,0.0,100,0.00,CLR,FEW,0.01,WeatherDisplay:10.37,2013-06-07 10:14:00,
2013-06-07 06:19:00,56.8,56.8,29.79,NW,325,0.0,0.0,100,0.00,CLR,FEW,0.01,WeatherDisplay:10.37,2013-06-07 10:19:00,
2013-06-07 06:24:00,56.8,56.8,29.79,NW,325,0.0,0.0,100,0.00,CLR,FEW,0.01,WeatherDisplay:10.37,2013-06-07 10:24:00,
2013-06-07 06:29:00,56.8,56.8,29.79,NW,325,0.0,0.0,100,0.00,CLR,FEW,0.01,WeatherDisplay:10.37,2013-06-07 10:29:00,
2013-06-07 06:39:00,56.8,56.8,29.79,NW,325,0.0,0.0,100,0.00,CLR,FEW,0.01,WeatherDisplay:10.37,2013-06-07 10:39:00,
2013-06-07 06:44:00,57.0,57.0,29.79,NW,325,0.0,0.0,100,0.00,CLR,FEW,0.01,WeatherDisplay:10.37,2013-06-07 10:44:00,
2013-06-07 06:49:00,57.0,57.0,29.79,NNW,335,0.0,1.0,100,0.00,CLR,FEW,0.01,WeatherDisplay:10.37,2013-06-07 10:49:00,
2013-06-07 06:59:00,57.0,57.0,29.79,North,354,0.0,2.0,100,0.00,CLR,FEW,0.01,WeatherDisplay:10.37,2013-06-07 10:59:00,
2013-06-07 07:04:00,57.0,57.0,29.79,North,353,1.0,5.0,100,0.00,CLR,FEW,0.01,WeatherDisplay:10.37,2013-06-07 11:04:00,
2013-06-07 07:09:00,57.0,57.0,29.79,North,355,1.0,5.0,100,0.00,CLR,FEW,0.01,WeatherDisplay:10.37,2013-06-07 11:09:00,
2013-06-07 07:19:00,57.0,57.0,29.79,NNW,344,1.0,0.0,100,0.00,CLR,FEW,0.01,WeatherDisplay:10.37,2013-06-07 11:19:00,
2013-06-07 07:29:00,57.2,57.2,29.79,North,349,0.0,0.0,100,0.00,CLR,FEW,0.01,WeatherDisplay:10.37,2013-06-07 11:29:00,
2013-06-07 07:39:00,57.4,57.4,29.79,NNW,344,1.0,5.0,100,0.00,CLR,FEW,0.01,WeatherDisplay:10.37,2013-06-07 11:39:00,
2013-06-07 07:44:00,57.4,57.4,29.79,North,349,1.0,2.0,100,0.00,CLR,FEW,0.01,WeatherDisplay:10.37,2013-06-07 11:44:00,
2013-06-07 07:49:00,57.2,57.2,29.79,North,2,1.0,4.0,100,0.00,CLR,FEW,0.01,WeatherDisplay:10.37,2013-06-07 11:49:00,
2013-06-07 07:59:00,57.2,57.2,29.79,NNW,347,2.0,3.0,100,0.00,CLR,FEW,0.01,WeatherDisplay:10.37,2013-06-07 11:59:00,
2013-06-07 08:04:00,57.6,57.6,29.79,NW,317,2.0,5.0,100,0.00,CLR,FEW,0.01,WeatherDisplay:10.37,2013-06-07 12:04:00,
2013-06-07 08:09:00,57.4,57.4,29.79,NW,322,2.0,5.0,100,0.00,CLR,FEW,0.01,WeatherDisplay:10.37,2013-06-07 12:09:00,
2013-06-07 08:14:00,57.4,57.4,29.79,NNW,332,2.0,4.0,100,0.00,CLR,FEW,0.01,WeatherDisplay:10.37,2013-06-07 12:14:00,
2013-06-07 08:19:00,57.4,57.4,29.79,NW,326,2.0,5.0,100,0.00,CLR,FEW,0.01,WeatherDisplay:10.37,2013-06-07 12:19:00,
2013-06-07 08:24:00,57.4,57.4,29.79,NW,317,2.0,5.0,100,0.00,CLR,FEW,0.01,WeatherDisplay:10.37,2013-06-07 12:24:00,
2013-06-07 08:29:00,57.4,57.4,29.79,NNW,331,2.0,5.0,100,0.00,CLR,FEW,0.01,WeatherDisplay:10.37,2013-06-07 12:29:00,
2013-06-07 08:34:00,57.4,57.4,29.79,North,354,2.0,2.0,100,0.00,CLR,FEW,0.01,WeatherDisplay:10.37,2013-06-07 12:34:00,
2013-06-07 08:39:00,57.4,57.4,29.79,North,356,2.0,3.0,100,0.00,CLR,FEW,0.01,WeatherDisplay:10.37,2013-06-07 12:39:00,
2013-06-07 08:49:00,57.4,57.4,29.79,NNW,333,3.0,8.0,100,0.00,CLR,FEW,0.01,WeatherDisplay:10.37,2013-06-07 12:49:00,
2013-06-07 08:59:00,57.2,57.2,29.82,NNE,18,5.0,5.0,100,0.00,CLR,FEW,0.01,WeatherDisplay:10.37,2013-06-07 12:59:00,
2013-06-07 09:04:00,57.2,57.2,29.82,North,10,3.0,3.0,100,0.00,CLR,FEW,0.01,WeatherDisplay:10.37,2013-06-07 13:04:00,
2013-06-07 09:09:00,57.2,57.2,29.82,North,5,3.0,0.0,100,0.00,CLR,FEW,0.01,WeatherDisplay:10.37,2013-06-07 13:09:00,
2013-06-07 09:19:00,57.7,57.7,29.82,North,357,1.0,3.0,100,0.00,CLR,FEW,0.01,WeatherDisplay:10.37,2013-06-07 13:19:00,
2013-06-07 09:29:00,57.6,57.6,29.82,North,349,1.0,2.0,100,0.00,CLR,FEW,0.01,WeatherDisplay:10.37,2013-06-07 13:29:00,
2013-06-07 09:39:00,57.6,57.6,29.82,NNW,336,1.0,5.0,100,0.00,CLR,FEW,0.01,WeatherDisplay:10.37,2013-06-07 13:39:00,
2013-06-07 09:44:00,57.6,57.6,29.82,North,11,2.0,5.0,100,0.00,CLR,FEW,0.01,WeatherDisplay:10.37,2013-06-07 13:44:00,
2013-06-07 09:49:00,57.4,57.4,29.82,NNE,12,2.0,2.0,100,0.00,CLR,FEW,0.01,WeatherDisplay:10.37,2013-06-07 13:49:00,
2013-06-07 09:54:00,57.4,57.4,29.82,NNE,12,2.0,3.0,100,0.00,CLR,FEW,0.01,WeatherDisplay:10.37,2013-06-07 13:54:00,
2013-06-07 09:59:00,57.6,57.6,29.82,NNE,16,2.0,5.0,100,0.00,CLR,FEW,0.01,WeatherDisplay:10.37,2013-06-07 13:59:00,
2013-06-07 10:04:00,57.7,57.7,29.82,North,360,2.0,5.0,100,0.00,CLR,FEW,0.01,WeatherDisplay:10.37,2013-06-07 14:04:00,
2013-06-07 10:09:00,57.9,57.9,29.82,North,1,2.0,5.0,100,0.00,CLR,FEW,0.01,WeatherDisplay:10.37,2013-06-07 14:09:00,
2013-06-07 10:19:00,57.7,57.7,29.82,North,350,5.0,7.0,100,0.00,CLR,FEW,0.01,WeatherDisplay:10.37,2013-06-07 14:19:00,
2013-06-07 10:24:00,57.9,57.9,29.82,NNW,338,5.0,6.0,100,0.00,CLR,FEW,0.01,WeatherDisplay:10.37,2013-06-07 14:24:00,
2013-06-07 10:29:00,57.9,57.9,29.82,NNE,13,5.0,7.0,100,0.00,CLR,FEW,0.01,WeatherDisplay:10.37,2013-06-07 14:29:00,
2013-06-07 10:39:00,57.9,57.9,29.82,NE,37,5.0,6.0,100,0.00,CLR,FEW,0.01,WeatherDisplay:10.37,2013-06-07 14:39:00,
2013-06-07 10:49:00,58.3,58.3,29.79,North,352,5.0,8.0,100,0.00,CLR,FEW,0.01,WeatherDisplay:10.37,2013-06-07 14:49:00,
2013-06-07 10:54:00,58.5,58.5,29.79,North,3,5.0,5.0,100,0.00,CLR,FEW,0.01,WeatherDisplay:10.37,2013-06-07 14:54:00,
2013-06-07 10:59:00,58.6,58.6,29.79,NNE,28,3.0,3.0,100,0.00,CLR,FEW,0.01,WeatherDisplay:10.37,2013-06-07 14:59:00,
2013-06-07 11:04:00,58.6,58.6,29.79,NNW,345,3.0,6.0,100,0.00,CLR,FEW,0.01,WeatherDisplay:10.37,2013-06-07 15:04:00,
2013-06-07 11:09:00,58.5,58.5,29.79,NNW,343,3.0,6.0,100,0.00,CLR,FEW,0.01,WeatherDisplay:10.37,2013-06-07 15:09:00,
2013-06-07 11:19:00,58.5,58.5,29.79,North,356,5.0,6.0,100,0.00,CLR,FEW,0.01,WeatherDisplay:10.37,2013-06-07 15:19:00,
2013-06-07 11:29:00,58.3,58.3,29.82,North,8,5.0,6.0,100,0.00,CLR,FEW,0.01,WeatherDisplay:10.37,2013-06-07 15:29:00,
2013-06-07 11:34:00,58.6,58.6,29.82,NNE,33,5.0,6.0,100,0.00,CLR,FEW,0.01,WeatherDisplay:10.37,2013-06-07 15:34:00,
2013-06-07 11:39:00,59.0,59.0,29.82,NNE,12,5.0,5.0,100,0.00,CLR,FEW,0.01,WeatherDisplay:10.37,2013-06-07 15:39:00,
2013-06-07 11:44:00,59.0,59.0,29.82,NNW,348,5.0,6.0,100,0.00,CLR,FEW,0.01,WeatherDisplay:10.37,2013-06-07 15:44:00,
2013-06-07 11:49:00,59.0,59.0,29.82,NNW,346,5.0,6.0,100,0.00,CLR,FEW,0.01,WeatherDisplay:10.37,2013-06-07 15:49:00,
2013-06-07 11:59:00,59.4,59.4,29.82,North,358,5.0,5.0,100,0.00,CLR,FEW,0.01,WeatherDisplay:10.37,2013-06-07 15:59:00,
2013-06-07 12:04:00,59.4,59.4,29.82,NNW,345,3.0,5.0,100,0.00,CLR,FEW,0.01,WeatherDisplay:10.37,2013-06-07 16:04:00,
2013-06-07 12:09:00,59.4,59.4,29.82,NW,320,3.0,5.0,100,0.00,CLR,FEW,0.01,WeatherDisplay:10.37,2013-06-07 16:09:00,
2013-06-07 12:14:00,59.4,59.4,29.82,NW,314,3.0,6.0,100,0.00,CLR,FEW,0.01,WeatherDisplay:10.37,2013-06-07 16:14:00,
2013-06-07 12:19:00,59.4,59.4,29.82,NNW,340,3.0,0.0,100,0.00,CLR,FEW,0.01,WeatherDisplay:10.37,2013-06-07 16:19:00,
2013-06-07 12:24:00,59.0,59.0,29.82,NNW,346,2.0,5.0,100,0.00,CLR,FEW,0.01,WeatherDisplay:10.37,2013-06-07 16:24:00,
2013-06-07 12:29:00,59.0,59.0,29.82,North,4,2.0,7.0,100,0.00,CLR,FEW,0.01,WeatherDisplay:10.37,2013-06-07 16:29:00,
2013-06-07 12:39:00,59.5,59.5,29.82,North,349,2.0,4.0,100,0.00,CLR,FEW,0.01,WeatherDisplay:10.37,2013-06-07 16:39:00,
2013-06-07 12:49:00,59.2,59.2,29.82,North,11,2.0,5.0,100,0.00,CLR,FEW,0.01,WeatherDisplay:10.37,2013-06-07 16:49:00,
2013-06-07 12:59:00,59.4,59.4,29.79,NNE,26,2.0,7.0,100,0.00,CLR,FEW,0.01,WeatherDisplay:10.37,2013-06-07 16:59:00,
2013-06-07 13:04:00,59.4,59.1,29.79,NNE,30,3.0,8.0,99,0.00,CLR,FEW,0.01,WeatherDisplay:10.37,2013-06-07 17:04:00,
2013-06-07 13:09:00,59.7,59.7,29.79,NNE,12,5.0,7.0,100,0.00,CLR,FEW,0.01,WeatherDisplay:10.37,2013-06-07 17:09:00,
2013-06-07 13:19:00,60.4,60.2,29.79,North,1,5.0,8.0,99,0.00,CLR,FEW,0.01,WeatherDisplay:10.37,2013-06-07 17:19:00,
2013-06-07 13:24:00,60.8,60.2,29.79,North,1,5.0,8.0,98,0.00,CLR,FEW,0.01,WeatherDisplay:10.37,2013-06-07 17:24:00,
2013-06-07 13:29:00,60.4,59.6,29.79,NNW,348,5.0,9.0,97,0.00,CLR,FEW,0.01,WeatherDisplay:10.37,2013-06-07 17:29:00,
2013-06-07 13:39:00,60.6,59.5,29.79,North,350,5.0,5.0,96,0.00,CLR,FEW,0.01,WeatherDisplay:10.37,2013-06-07 17:39:00,
2013-06-07 13:49:00,60.8,59.4,29.79,NW,320,5.0,7.0,95,0.00,CLR,FEW,0.01,WeatherDisplay:10.37,2013-06-07 17:49:00,
2013-06-07 14:04:00,61.2,59.4,29.79,NW,319,3.0,5.0,94,0.00,CLR,FEW,0.01,WeatherDisplay:10.37,2013-06-07 18:04:00,
2013-06-07 14:09:00,61.2,59.4,29.79,NNW,330,3.0,3.0,94,0.00,CLR,FEW,0.01,WeatherDisplay:10.37,2013-06-07 18:09:00,
2013-06-07 14:19:00,61.3,59.6,29.79,NNW,347,3.0,8.0,94,0.00,CLR,FEW,0.01,WeatherDisplay:10.37,2013-06-07 18:19:00,
2013-06-07 14:29:00,61.2,59.4,29.79,NNW,336,3.0,3.0,94,0.00,CLR,FEW,0.01,WeatherDisplay:10.37,2013-06-07 18:29:00,
2013-06-07 14:44:00,60.8,58.8,29.79,North,8,5.0,5.0,93,0.00,CLR,FEW,0.01,WeatherDisplay:10.37,2013-06-07 18:44:00,
2013-06-07 14:49:00,61.3,59.3,29.79,NNW,348,6.0,6.0,93,0.00,CLR,FEW,0.01,WeatherDisplay:10.37,2013-06-07 18:49:00,
2013-06-07 14:59:00,61.0,58.9,29.79,NW,306,5.0,5.0,93,0.00,CLR,FEW,0.01,WeatherDisplay:10.37,2013-06-07 18:59:00,
2013-06-07 15:04:00,61.2,59.1,29.79,North,2,5.0,10.0,93,0.00,CLR,FEW,0.01,WeatherDisplay:10.37,2013-06-07 19:04:00,
2013-06-07 15:09:00,61.3,59.3,29.79,NNE,19,6.0,8.0,93,0.00,CLR,FEW,0.01,WeatherDisplay:10.37,2013-06-07 19:09:00,
2013-06-07 15:14:00,61.5,59.2,29.79,NNE,19,7.0,10.0,92,0.00,CLR,FEW,0.01,WeatherDisplay:10.37,2013-06-07 19:14:00,
2013-06-07 15:19:00,61.5,59.2,29.79,North,5,7.0,7.0,92,0.00,CLR,FEW,0.01,WeatherDisplay:10.37,2013-06-07 19:19:00,
2013-06-07 15:34:00,61.0,58.6,29.79,North,358,7.0,7.0,92,0.00,CLR,FEW,0.01,WeatherDisplay:10.37,2013-06-07 19:34:00,
2013-06-07 15:39:00,60.4,58.4,29.79,North,7,7.0,8.0,93,0.00,CLR,FEW,0.01,WeatherDisplay:10.37,2013-06-07 19:39:00,
2013-06-07 15:44:00,60.8,58.8,29.79,North,350,7.0,10.0,93,0.00,CLR,FEW,0.01,WeatherDisplay:10.37,2013-06-07 19:44:00,
2013-06-07 15:49:00,60.8,58.8,29.79,North,359,8.0,10.0,93,0.00,CLR,FEW,0.01,WeatherDisplay:10.37,2013-06-07 19:49:00,
2013-06-07 16:04:00,60.1,58.6,29.79,North,359,5.0,7.0,95,0.00,CLR,FEW,0.01,WeatherDisplay:10.37,2013-06-07 20:04:00,
2013-06-07 16:09:00,59.9,58.5,29.79,NNW,341,5.0,5.0,95,0.00,CLR,FEW,0.01,WeatherDisplay:10.37,2013-06-07 20:09:00,
2013-06-07 16:24:00,59.4,58.2,29.79,North,359,5.0,7.0,96,0.00,CLR,FEW,0.01,WeatherDisplay:10.37,2013-06-07 20:24:00,
2013-06-07 16:29:00,59.0,58.2,29.79,North,4,6.0,8.0,97,0.00,CLR,FEW,0.01,WeatherDisplay:10.37,2013-06-07 20:29:00,
2013-06-07 16:34:00,59.0,58.2,29.79,North,354,7.0,8.0,97,0.00,CLR,FEW,0.01,WeatherDisplay:10.37,2013-06-07 20:34:00,
2013-06-07 16:44:00,59.0,58.2,29.79,North,349,5.0,7.0,97,0.00,CLR,FEW,0.01,WeatherDisplay:10.37,2013-06-07 20:44:00,
2013-06-07 16:49:00,59.0,58.2,29.79,NNW,348,6.0,10.0,97,0.00,CLR,FEW,0.01,WeatherDisplay:10.37,2013-06-07 20:49:00,
2013-06-07 16:54:00,59.0,58.2,29.79,North,3,6.0,10.0,97,0.00,CLR,FEW,0.01,WeatherDisplay:10.37,2013-06-07 20:54:00,
2013-06-07 16:59:00,58.8,58.0,29.79,NNE,15,7.0,9.0,97,0.00,CLR,FEW,0.01,WeatherDisplay:10.37,2013-06-07 20:59:00,
2013-06-07 17:04:00,59.0,58.2,29.79,North,353,8.0,9.0,97,0.00,CLR,FEW,0.01,WeatherDisplay:10.37,2013-06-07 21:04:00,
2013-06-07 17:14:00,58.8,58.0,29.79,North,2,7.0,9.0,97,0.00,CLR,FEW,0.01,WeatherDisplay:10.37,2013-06-07 21:14:00,
2013-06-07 17:19:00,58.8,58.3,29.79,NNE,22,6.0,6.0,98,0.00,CLR,FEW,0.01,WeatherDisplay:10.37,2013-06-07 21:19:00,
2013-06-07 17:29:00,59.0,58.4,29.79,North,360,6.0,7.0,98,0.00,CLR,FEW,0.01,WeatherDisplay:10.37,2013-06-07 21:29:00,
2013-06-07 17:39:00,59.0,58.4,29.79,NNW,348,5.0,7.0,98,0.00,CLR,FEW,0.01,WeatherDisplay:10.37,2013-06-07 21:39:00,
2013-06-07 17:49:00,59.4,58.5,29.79,North,358,5.0,6.0,97,0.00,CLR,FEW,0.01,WeatherDisplay:10.37,2013-06-07 21:49:00,
2013-06-07 17:54:00,59.4,58.5,29.79,North,353,5.0,7.0,97,0.00,CLR,FEW,0.01,WeatherDisplay:10.37,2013-06-07 21:54:00,
2013-06-07 17:59:00,59.2,58.3,29.79,NNW,347,5.0,8.0,97,0.00,CLR,FEW,0.01,WeatherDisplay:10.37,2013-06-07 21:59:00,
2013-06-07 18:09:00,59.5,58.4,29.79,NNW,344,5.0,7.0,96,0.00,CLR,FEW,0.01,WeatherDisplay:10.37,2013-06-07 22:09:00,
2013-06-07 18:19:00,59.5,58.1,29.79,NNW,344,2.0,6.0,95,0.00,CLR,FEW,0.01,WeatherDisplay:10.37,2013-06-07 22:19:00,
2013-06-07 18:29:00,59.4,57.6,29.79,North,355,3.0,5.0,94,0.00,CLR,FEW,0.01,WeatherDisplay:10.37,2013-06-07 22:29:00,
2013-06-07 18:39:00,59.5,57.8,29.79,North,359,5.0,5.0,94,0.00,CLR,FEW,0.01,WeatherDisplay:10.37,2013-06-07 22:39:00,
2013-06-07 18:49:00,59.2,57.2,29.79,NNW,330,5.0,7.0,93,0.00,CLR,FEW,0.01,WeatherDisplay:10.37,2013-06-07 22:49:00,
2013-06-07 18:59:00,59.2,57.2,29.79,NNW,342,6.0,6.0,93,0.00,CLR,FEW,0.01,WeatherDisplay:10.37,2013-06-07 22:59:00,
2013-06-07 19:09:00,59.0,57.0,29.79,North,358,6.0,10.0,93,0.00,CLR,FEW,0.01,WeatherDisplay:10.37,2013-06-07 23:09:00,
2013-06-07 19:19:00,59.2,57.2,29.79,NNW,339,6.0,7.0,93,0.00,CLR,FEW,0.01,WeatherDisplay:10.37,2013-06-07 23:19:00,
2013-06-07 19:29:00,59.2,57.2,29.79,NNW,345,5.0,7.0,93,0.00,CLR,FEW,0.01,WeatherDisplay:10.37,2013-06-07 23:29:00,
2013-06-07 19:34:00,59.2,57.5,29.79,NNW,337,3.0,7.0,94,0.00,CLR,FEW,0.01,WeatherDisplay:10.37,2013-06-07 23:34:00,
2013-06-07 19:39:00,59.4,57.3,29.79,NNW,340,5.0,5.0,93,0.00,CLR,FEW,0.01,WeatherDisplay:10.37,2013-06-07 23:39:00,
2013-06-07 19:49:00,58.8,57.1,29.79,North,5,5.0,8.0,94,0.00,CLR,FEW,0.01,WeatherDisplay:10.37,2013-06-07 23:49:00,
2013-06-07 19:59:00,59.0,57.0,29.79,North,6,2.0,0.0,93,0.00,CLR,FEW,0.01,WeatherDisplay:10.37,2013-06-07 23:59:00,
2013-06-07 20:14:00,58.8,57.4,29.82,North,353,0.0,0.0,95,0.00,CLR,FEW,0.01,WeatherDisplay:10.37,2013-06-08 00:14:00,
2013-06-07 20:19:00,58.8,57.4,29.82,NNW,336,0.0,0.0,95,0.00,CLR,FEW,0.01,WeatherDisplay:10.37,2013-06-08 00:19:00,
2013-06-07 20:29:00,58.6,57.5,29.82,NNW,328,0.0,0.0,96,0.00,CLR,FEW,0.01,WeatherDisplay:10.37,2013-06-08 00:29:00,
2013-06-07 20:39:00,58.6,57.5,29.82,NW,325,0.0,0.0,96,0.00,CLR,FEW,0.01,WeatherDisplay:10.37,2013-06-08 00:39:00,
2013-06-07 20:54:00,58.5,57.3,29.82,NW,321,0.0,0.0,96,0.00,CLR,FEW,0.01,WeatherDisplay:10.37,2013-06-08 00:54:00,
2013-06-07 20:59:00,58.5,57.3,29.82,NW,320,0.0,0.0,96,0.00,CLR,FEW,0.01,WeatherDisplay:10.37,2013-06-08 00:59:00,
2013-06-07 21:04:00,58.5,57.3,29.82,NW,320,0.0,0.0,96,0.00,CLR,FEW,0.01,WeatherDisplay:10.37,2013-06-08 01:04:00,
2013-06-07 21:09:00,58.5,57.3,29.82,NW,320,0.0,0.0,96,0.00,CLR,FEW,0.01,WeatherDisplay:10.37,2013-06-08 01:09:00,
2013-06-07 21:14:00,58.5,57.6,29.82,NW,320,0.0,0.0,97,0.00,CLR,FEW,0.01,WeatherDisplay:10.37,2013-06-08 01:14:00,
2013-06-07 21:19:00,58.3,57.4,29.82,NW,320,0.0,1.0,97,0.00,CLR,FEW,0.01,WeatherDisplay:10.37,2013-06-08 01:19:00,
2013-06-07 21:29:00,58.3,57.4,29.82,NW,320,0.0,0.0,97,0.00,CLR,FEW,0.01,WeatherDisplay:10.37,2013-06-08 01:29:00,
2013-06-07 21:34:00,58.1,57.3,29.82,NW,320,0.0,0.0,97,0.00,CLR,FEW,0.01,WeatherDisplay:10.37,2013-06-08 01:34:00,
2013-06-07 21:39:00,58.1,57.3,29.82,NW,320,0.0,0.0,97,0.00,CLR,FEW,0.01,WeatherDisplay:10.37,2013-06-08 01:39:00,
2013-06-07 21:49:00,58.1,57.3,29.82,NW,320,0.0,0.0,97,0.00,CLR,FEW,0.01,WeatherDisplay:10.37,2013-06-08 01:49:00,
2013-06-07 21:54:00,58.1,57.5,29.82,NW,320,0.0,0.0,98,0.00,CLR,FEW,0.01,WeatherDisplay:10.37,2013-06-08 01:54:00,
2013-06-07 21:59:00,58.1,57.5,29.82,NW,320,0.0,0.0,98,0.00,CLR,FEW,0.01,WeatherDisplay:10.37,2013-06-08 01:59:00,
2013-06-07 22:04:00,58.1,57.5,29.82,NW,320,0.0,0.0,98,0.00,CLR,FEW,0.01,WeatherDisplay:10.37,2013-06-08 02:04:00,
2013-06-07 22:09:00,57.9,57.4,29.82,NW,320,0.0,0.0,98,0.00,CLR,FEW,0.01,WeatherDisplay:10.37,2013-06-08 02:09:00,
2013-06-07 22:19:00,57.9,57.4,29.82,NW,320,0.0,0.0,98,0.00,CLR,FEW,0.01,WeatherDisplay:10.37,2013-06-08 02:19:00,
2013-06-07 22:24:00,57.9,57.4,29.82,NW,320,0.0,0.0,98,0.00,CLR,FEW,0.01,WeatherDisplay:10.37,2013-06-08 02:24:00,
2013-06-07 22:29:00,57.9,57.4,29.85,NW,318,0.0,0.0,98,0.00,CLR,FEW,0.01,WeatherDisplay:10.37,2013-06-08 02:29:00,
2013-06-07 22:39:00,57.9,57.4,29.85,NW,320,0.0,0.0,98,0.00,CLR,FEW,0.01,WeatherDisplay:10.37,2013-06-08 02:39:00,
2013-06-07 22:49:00,57.9,57.6,29.85,NW,320,0.0,0.0,99,0.00,CLR,FEW,0.01,WeatherDisplay:10.37,2013-06-08 02:49:00,
2013-06-07 22:59:00,57.9,57.6,29.85,NW,320,0.0,0.0,99,0.00,CLR,FEW,0.01,WeatherDisplay:10.37,2013-06-08 02:59:00,
2013-06-07 23:04:00,57.9,57.6,29.85,NW,320,0.0,0.0,99,0.00,CLR,FEW,0.01,WeatherDisplay:10.37,2013-06-08 03:04:00,
2013-06-07 23:09:00,57.9,57.9,29.85,NW,320,0.0,0.0,100,0.00,CLR,FEW,0.01,WeatherDisplay:10.37,2013-06-08 03:09:00,
2013-06-07 23:19:00,57.9,57.9,29.85,NW,320,0.0,0.0,100,0.00,CLR,FEW,0.01,WeatherDisplay:10.37,2013-06-08 03:19:00,
2013-06-07 23:29:00,57.9,57.9,29.85,NW,320,0.0,0.0,100,0.00,CLR,FEW,0.01,WeatherDisplay:10.37,2013-06-08 03:29:00,
2013-06-07 23:39:00,57.9,57.9,29.85,NW,320,0.0,0.0,100,0.00,CLR,FEW,0.01,WeatherDisplay:10.37,2013-06-08 03:39:00,
2013-06-07 23:49:00,58.1,58.1,29.85,NW,320,0.0,0.0,100,0.00,CLR,FEW,0.01,WeatherDisplay:10.37,2013-06-08 03:49:00,
2013-06-07 23:59:00,58.1,58.1,29.85,NW,320,0.0,0.0,100,0.00,CLR,FEW,0.00,WeatherDisplay:10.37,2013-06-08 03:59:00,